createdAt,value
2019-03-28T00:00:22.208Z,20.3
2019-03-28T00:01:11.668Z,20.1
2019-03-28T00:02:02.647Z,20.1
2019-03-28T00:02:51.765Z,19.9
2019-03-28T00:03:41.843Z,19.9
2019-03-28T00:04:31.613Z,19.8
2019-03-28T00:05:22.008Z,19.8
2019-03-28T00:06:12.593Z,19.8
2019-03-28T00:07:02.089Z,19.7
2019-03-28T00:07:52.411Z,19.7
2019-03-28T00:08:41.650Z,19.6
2019-03-28T00:09:32.823Z,19.6
2019-03-28T00:10:23.153Z,19.6
2019-03-28T00:11:12.773Z,19.5
2019-03-28T00:12:03.482Z,19.4
2019-03-28T00:12:52.787Z,19.4
2019-03-28T00:13:42.828Z,19.3
2019-03-28T00:14:33.210Z,19.3
2019-03-28T00:15:22.955Z,19.2
2019-03-28T00:16:13.030Z,19.2
2019-03-28T00:17:02.067Z,19.2
2019-03-28T00:17:52.743Z,19.3
2019-03-28T00:18:42.806Z,19.2
2019-03-28T00:19:32.047Z,19.2
2019-03-28T00:20:23.825Z,19.1
2019-03-28T00:21:12.425Z,19.1
2019-03-28T00:22:06.248Z,19.1
2019-03-28T00:22:53.095Z,19
2019-03-28T00:23:43.630Z,18.9
2019-03-28T00:24:33.722Z,18.9
2019-03-28T00:25:23.222Z,18.8
2019-03-28T00:26:13.582Z,18.8
2019-03-28T00:27:04.012Z,18.8
2019-03-28T00:27:54.447Z,18.9
2019-03-28T00:28:44.787Z,18.9
2019-03-28T00:29:34.392Z,18.9
2019-03-28T00:30:24.591Z,18.8
2019-03-28T00:31:14.717Z,18.8
2019-03-28T00:32:04.802Z,18.8
2019-03-28T00:32:54.515Z,18.8
2019-03-28T00:35:23.952Z,18.6
2019-03-28T00:36:14.274Z,18.6
2019-03-28T00:37:07.517Z,18.5
2019-03-28T00:37:55.137Z,18.8
2019-03-28T00:38:44.716Z,19.6
2019-03-28T00:39:34.416Z,20.3
2019-03-28T00:40:25.316Z,20.9
2019-03-28T00:41:14.641Z,21.4
2019-03-28T00:42:03.577Z,21.7
2019-03-28T00:42:55.211Z,22
2019-03-28T00:43:44.261Z,22.2
2019-03-28T00:44:35.056Z,22.4
2019-03-28T00:45:24.752Z,22.6
2019-03-28T00:46:15.186Z,22.8
2019-03-28T00:47:05.005Z,22.9
2019-03-28T00:47:55.313Z,23.1
2019-03-28T00:48:45.619Z,23.2
2019-03-28T00:49:35.701Z,23.3
2019-03-28T00:50:25.754Z,23.4
2019-03-28T00:51:15.611Z,23.4
2019-03-28T00:52:05.658Z,23.1
2019-03-28T00:52:55.978Z,22.6
2019-03-28T00:53:46.098Z,22.2
2019-03-28T00:54:35.576Z,21.8
2019-03-28T00:55:26.475Z,21.6
2019-03-28T00:56:15.913Z,21.4
2019-03-28T00:57:06.421Z,21.2
2019-03-28T00:57:55.592Z,21.1
2019-03-28T00:58:46.070Z,20.9
2019-03-28T00:59:35.962Z,20.9
2019-03-28T01:00:24.945Z,20.8
2019-03-28T01:01:16.075Z,20.7
2019-03-28T01:02:05.893Z,20.6
2019-03-28T01:02:55.948Z,20.4
2019-03-28T01:03:46.578Z,20.3
2019-03-28T01:04:36.037Z,20.2
2019-03-28T01:05:26.422Z,20.1
2019-03-28T01:06:15.893Z,19.9
2019-03-28T01:07:05.765Z,19.9
2019-03-28T01:07:56.390Z,19.8
2019-03-28T01:08:46.686Z,19.7
2019-03-28T01:09:37.043Z,19.6
2019-03-28T01:10:27.688Z,19.6
2019-03-28T01:11:17.927Z,19.5
2019-03-28T01:12:07.305Z,19.5
2019-03-28T01:12:57.935Z,19.5
2019-03-28T01:13:48.084Z,19.5
2019-03-28T01:14:37.162Z,19.4
2019-03-28T01:15:27.387Z,19.4
2019-03-28T01:16:17.590Z,19.4
2019-03-28T01:17:07.380Z,19.3
2019-03-28T01:17:58.530Z,19.3
2019-03-28T01:18:48.217Z,19.2
2019-03-28T01:19:38.082Z,19.1
2019-03-28T01:20:27.797Z,19.1
2019-03-28T01:21:18.361Z,19
2019-03-28T01:22:08.334Z,19
2019-03-28T01:22:58.666Z,19.1
2019-03-28T01:23:48.999Z,19.1
2019-03-28T01:24:38.272Z,19.1
2019-03-28T01:25:28.971Z,19
2019-03-28T01:26:18.976Z,19
2019-03-28T01:27:08.410Z,18.9
2019-03-28T01:27:58.931Z,18.9
2019-03-28T01:28:49.139Z,18.8
2019-03-28T01:29:38.779Z,18.8
2019-03-28T01:30:28.432Z,18.8
2019-03-28T01:32:09.488Z,18.6
2019-03-28T01:32:59.436Z,18.8
2019-03-28T01:33:49.151Z,19.7
2019-03-28T01:34:39.431Z,20.4
2019-03-28T01:35:29.957Z,20.9
2019-03-28T01:36:19.863Z,21.4
2019-03-28T01:37:09.479Z,21.7
2019-03-28T01:37:59.506Z,21.9
2019-03-28T01:38:49.763Z,22.2
2019-03-28T01:39:39.972Z,22.4
2019-03-28T01:40:29.783Z,22.5
2019-03-28T01:41:20.121Z,22.7
2019-03-28T01:42:10.523Z,22.8
2019-03-28T01:42:59.456Z,22.9
2019-03-28T01:43:49.636Z,23.1
2019-03-28T01:44:39.168Z,23.2
2019-03-28T01:45:29.532Z,23.3
2019-03-28T01:46:19.525Z,23.3
2019-03-28T01:47:09.881Z,23.3
2019-03-28T01:47:58.538Z,22.8
2019-03-28T01:48:50.045Z,22.3
2019-03-28T01:49:39.795Z,21.9
2019-03-28T01:50:29.557Z,21.6
2019-03-28T01:51:19.678Z,21.4
2019-03-28T01:52:13.438Z,21.3
2019-03-28T01:53:00.581Z,21.1
2019-03-28T01:53:49.521Z,20.9
2019-03-28T01:54:39.875Z,20.8
2019-03-28T01:55:30.449Z,20.8
2019-03-28T01:56:20.535Z,20.6
2019-03-28T01:57:20.667Z,20.6
2019-03-28T01:58:00.086Z,20.4
2019-03-28T01:58:50.720Z,20.3
2019-03-28T01:59:40.763Z,20.2
2019-03-28T02:00:30.814Z,20.1
2019-03-28T02:01:20.649Z,19.9
2019-03-28T02:02:10.386Z,19.8
2019-03-28T02:03:01.305Z,19.8
2019-03-28T02:03:50.567Z,19.7
2019-03-28T02:04:41.197Z,19.6
2019-03-28T02:05:30.956Z,19.5
2019-03-28T02:06:20.399Z,19.4
2019-03-28T02:07:10.772Z,19.4
2019-03-28T02:08:03.728Z,19.4
2019-03-28T02:08:51.229Z,19.4
2019-03-28T02:09:41.829Z,19.3
2019-03-28T02:10:31.519Z,19.3
2019-03-28T02:11:22.007Z,19.3
2019-03-28T02:12:12.109Z,19.2
2019-03-28T02:13:02.656Z,19.1
2019-03-28T02:13:51.819Z,19.1
2019-03-28T02:14:42.669Z,19
2019-03-28T02:15:32.630Z,19
2019-03-28T02:16:22.366Z,18.9
2019-03-28T02:17:10.971Z,18.9
2019-03-28T02:18:01.267Z,18.8
2019-03-28T02:18:50.760Z,18.9
2019-03-28T02:19:42.486Z,18.9
2019-03-28T02:20:32.556Z,18.9
2019-03-28T02:21:22.381Z,18.9
2019-03-28T02:22:12.216Z,18.8
2019-03-28T02:23:02.258Z,18.8
2019-03-28T02:23:51.493Z,18.8
2019-03-28T02:26:22.130Z,18.6
2019-03-28T02:27:26.556Z,18.8
2019-03-28T02:28:02.086Z,19.8
2019-03-28T02:28:52.881Z,20.2
2019-03-28T02:29:42.143Z,20.8
2019-03-28T02:30:34.470Z,21.2
2019-03-28T02:31:24.713Z,21.5
2019-03-28T02:32:13.196Z,21.8
2019-03-28T02:33:03.978Z,22
2019-03-28T02:33:52.516Z,22.1
2019-03-28T02:34:42.871Z,22.3
2019-03-28T02:35:32.332Z,22.4
2019-03-28T02:36:23.592Z,22.6
2019-03-28T02:37:13.405Z,22.7
2019-03-28T02:38:03.551Z,22.8
2019-03-28T02:38:53.957Z,22.9
2019-03-28T02:39:43.500Z,22.9
2019-03-28T02:40:33.578Z,23.1
2019-03-28T02:41:23.700Z,23.1
2019-03-28T02:42:13.427Z,23.2
2019-03-28T02:43:03.562Z,23.3
2019-03-28T02:43:54.120Z,22.9
2019-03-28T02:44:45.354Z,22.4
2019-03-28T02:45:35.799Z,21.9
2019-03-28T02:46:24.665Z,21.6
2019-03-28T02:47:14.151Z,21.4
2019-03-28T02:48:56.313Z,21
2019-03-28T02:49:43.914Z,20.9
2019-03-28T02:50:34.578Z,20.7
2019-03-28T02:51:24.947Z,20.6
2019-03-28T02:52:14.372Z,20.5
2019-03-28T02:53:03.934Z,20.4
2019-03-28T02:53:54.963Z,20.4
2019-03-28T02:54:45.167Z,20.3
2019-03-28T02:55:34.383Z,20
2019-03-28T02:56:25.587Z,19.9
2019-03-28T02:57:15.744Z,19.8
2019-03-28T02:58:04.804Z,19.7
2019-03-28T02:58:55.123Z,19.6
2019-03-28T02:59:44.986Z,19.6
2019-03-28T03:00:34.992Z,19.4
2019-03-28T03:01:25.642Z,19.4
2019-03-28T03:02:16.234Z,19.3
2019-03-28T03:03:05.579Z,19.3
2019-03-28T03:03:55.007Z,19.2
2019-03-28T03:07:25.862Z,19.1
2019-03-28T03:08:17.035Z,19.1
2019-03-28T03:09:07.043Z,19.1
2019-03-28T03:09:57.901Z,19
2019-03-28T03:10:47.153Z,18.9
2019-03-28T03:11:36.966Z,18.9
2019-03-28T03:12:26.245Z,18.8
2019-03-28T03:13:16.779Z,18.8
2019-03-28T03:14:07.052Z,19.1
2019-03-28T03:14:56.555Z,19.8
2019-03-28T03:15:47.184Z,20.4
2019-03-28T03:16:36.655Z,20.9
2019-03-28T03:17:26.174Z,21.3
2019-03-28T03:18:21.937Z,21.6
2019-03-28T03:19:07.840Z,21.8
2019-03-28T03:19:57.673Z,22
2019-03-28T03:20:48.052Z,22.1
2019-03-28T03:21:38.980Z,22.3
2019-03-28T03:22:26.789Z,22.4
2019-03-28T03:23:17.037Z,21.9
2019-03-28T03:24:57.710Z,20.4
2019-03-28T03:25:47.173Z,20.3
2019-03-28T03:26:37.708Z,20.3
2019-03-28T03:27:27.754Z,20.9
2019-03-28T03:28:17.758Z,21.4
2019-03-28T03:29:07.987Z,21.7
2019-03-28T03:29:57.652Z,21.9
2019-03-28T03:30:48.156Z,22.1
2019-03-28T03:31:38.570Z,22.3
2019-03-28T03:32:28.430Z,22.4
2019-03-28T03:33:18.892Z,22.6
2019-03-28T03:34:11.201Z,22.7
2019-03-28T03:35:02.133Z,22.8
2019-03-28T03:35:48.097Z,22.9
2019-03-28T03:36:38.222Z,23
2019-03-28T03:37:27.700Z,23.1
2019-03-28T03:38:18.009Z,23.1
2019-03-28T03:39:07.891Z,22.7
2019-03-28T03:39:58.808Z,22.2
2019-03-28T03:40:48.427Z,21.8
2019-03-28T03:41:38.350Z,21.5
2019-03-28T03:42:28.860Z,21.3
2019-03-28T03:43:18.902Z,21.1
2019-03-28T03:44:09.327Z,20.9
2019-03-28T03:44:59.239Z,20.8
2019-03-28T03:45:49.376Z,20.6
2019-03-28T03:46:38.584Z,20.5
2019-03-28T03:47:28.688Z,20.4
2019-03-28T03:48:19.909Z,20.4
2019-03-28T03:49:09.643Z,20.3
2019-03-28T03:50:00.881Z,20.1
2019-03-28T03:50:50.224Z,19.9
2019-03-28T03:51:38.968Z,19.8
2019-03-28T03:52:29.279Z,19.8
2019-03-28T03:53:19.587Z,19.6
2019-03-28T03:54:09.406Z,19.5
2019-03-28T03:54:59.815Z,19.4
2019-03-28T03:55:49.761Z,19.3
2019-03-28T03:56:40.164Z,19.3
2019-03-28T03:57:29.928Z,19.2
2019-03-28T03:58:27.308Z,19.2
2019-03-28T03:59:09.729Z,19.2
2019-03-28T03:59:59.534Z,19.2
2019-03-28T04:00:50.254Z,19.1
2019-03-28T04:01:39.971Z,19.1
2019-03-28T04:02:29.466Z,19.1
2019-03-28T04:03:19.496Z,19
2019-03-28T04:04:10.491Z,18.9
2019-03-28T04:05:05.561Z,18.9
2019-03-28T04:05:50.773Z,18.9
2019-03-28T04:06:39.580Z,18.8
2019-03-28T04:07:30.429Z,18.8
2019-03-28T04:08:21.204Z,19.3
2019-03-28T04:09:11.048Z,20
2019-03-28T04:10:01.102Z,20.6
2019-03-28T04:10:50.576Z,21.1
2019-03-28T04:11:40.826Z,21.3
2019-03-28T04:12:31.303Z,21.6
2019-03-28T04:13:20.273Z,21.8
2019-03-28T04:14:11.493Z,21.9
2019-03-28T04:15:01.474Z,22.1
2019-03-28T04:15:51.000Z,22.3
2019-03-28T04:16:41.585Z,22.4
2019-03-28T04:17:31.334Z,22.4
2019-03-28T04:18:26.949Z,22.6
2019-03-28T04:19:11.354Z,22.7
2019-03-28T04:20:03.566Z,22.8
2019-03-28T04:20:52.717Z,22.9
2019-03-28T04:21:41.380Z,22.9
2019-03-28T04:22:31.717Z,23
2019-03-28T04:23:21.613Z,23.1
2019-03-28T04:24:12.217Z,22.6
2019-03-28T04:25:02.366Z,22.1
2019-03-28T04:25:52.058Z,21.7
2019-03-28T04:26:40.882Z,21.4
2019-03-28T04:28:41.931Z,21
2019-03-28T04:29:12.762Z,20.8
2019-03-28T04:30:03.546Z,20.6
2019-03-28T04:30:51.864Z,20.5
2019-03-28T04:31:42.159Z,20.4
2019-03-28T04:32:32.454Z,20.3
2019-03-28T04:33:22.769Z,20.3
2019-03-28T04:34:18.374Z,20.1
2019-03-28T04:35:04.099Z,20
2019-03-28T04:35:53.765Z,19.8
2019-03-28T04:36:43.789Z,19.7
2019-03-28T04:37:33.704Z,19.6
2019-03-28T04:38:22.939Z,19.5
2019-03-28T04:39:12.914Z,19.4
2019-03-28T04:40:02.928Z,19.3
2019-03-28T04:40:53.362Z,19.3
2019-03-28T04:41:43.118Z,19.1
2019-03-28T04:42:32.561Z,19.1
2019-03-28T04:43:22.757Z,19.1
2019-03-28T04:44:12.811Z,19.1
2019-03-28T04:45:06.916Z,19.1
2019-03-28T04:45:53.295Z,19
2019-03-28T04:46:43.373Z,19
2019-03-28T04:47:33.740Z,18.9
2019-03-28T04:48:22.946Z,18.9
2019-03-28T04:49:16.647Z,18.9
2019-03-28T04:50:03.485Z,18.8
2019-03-28T04:50:53.579Z,18.8
2019-03-28T04:51:43.428Z,18.8
2019-03-28T04:52:37.255Z,19.5
2019-03-28T04:53:23.303Z,20.2
2019-03-28T04:54:16.733Z,20.7
2019-03-28T04:55:04.343Z,21.1
2019-03-28T04:55:54.243Z,21.3
2019-03-28T04:56:45.045Z,21.5
2019-03-28T04:57:35.390Z,21.7
2019-03-28T04:58:28.894Z,21.8
2019-03-28T04:59:15.354Z,22.1
2019-03-28T05:00:03.785Z,22.1
2019-03-28T05:00:54.268Z,22.3
2019-03-28T05:01:44.191Z,22.4
2019-03-28T05:02:35.790Z,22.5
2019-03-28T05:03:25.930Z,22.6
2019-03-28T05:04:15.814Z,22.6
2019-03-28T05:05:04.960Z,22.8
2019-03-28T05:05:54.230Z,22.8
2019-03-28T05:06:45.955Z,22.9
2019-03-28T05:07:34.355Z,22.9
2019-03-28T05:08:23.819Z,22.5
2019-03-28T05:09:15.006Z,22
2019-03-28T05:10:04.969Z,21.6
2019-03-28T05:10:55.379Z,21.3
2019-03-28T05:11:44.444Z,21.1
2019-03-28T05:12:35.499Z,20.9
2019-03-28T05:13:26.544Z,20.8
2019-03-28T05:14:16.349Z,20.6
2019-03-28T05:15:06.551Z,20.5
2019-03-28T05:15:55.767Z,20.4
2019-03-28T05:16:45.507Z,20.3
2019-03-28T05:17:35.298Z,20.2
2019-03-28T05:18:25.627Z,20.1
2019-03-28T05:19:15.709Z,20
2019-03-28T05:20:05.971Z,19.8
2019-03-28T05:20:56.079Z,19.7
2019-03-28T05:21:45.697Z,19.6
2019-03-28T05:22:35.947Z,19.5
2019-03-28T05:23:26.553Z,19.4
2019-03-28T05:24:15.801Z,19.3
2019-03-28T05:25:07.238Z,19.3
2019-03-28T05:25:57.242Z,19.1
2019-03-28T05:26:46.949Z,19.1
2019-03-28T05:27:36.864Z,19
2019-03-28T05:28:27.397Z,19
2019-03-28T05:29:16.696Z,19.4
2019-03-28T05:30:09.498Z,20.1
2019-03-28T05:30:56.614Z,20.8
2019-03-28T05:32:36.185Z,21.4
2019-03-28T05:33:26.978Z,21.7
2019-03-28T05:34:17.290Z,21.9
2019-03-28T05:35:08.003Z,22
2019-03-28T05:35:57.588Z,22.2
2019-03-28T05:36:48.238Z,22.3
2019-03-28T05:37:37.482Z,22.4
2019-03-28T05:38:26.350Z,22.6
2019-03-28T05:39:16.930Z,22.6
2019-03-28T05:40:07.649Z,22.8
2019-03-28T05:40:57.005Z,22.8
2019-03-28T05:41:45.910Z,22.9
2019-03-28T05:42:37.673Z,22.8
2019-03-28T05:43:27.173Z,22.3
2019-03-28T05:44:17.231Z,21.8
2019-03-28T05:45:07.548Z,21.5
2019-03-28T05:45:57.647Z,21.3
2019-03-28T05:46:47.950Z,21.1
2019-03-28T05:47:38.435Z,20.8
2019-03-28T05:48:27.527Z,20.7
2019-03-28T05:49:17.853Z,20.6
2019-03-28T05:50:08.253Z,20.4
2019-03-28T05:50:57.600Z,20.3
2019-03-28T05:51:48.047Z,20.3
2019-03-28T05:52:37.202Z,20.2
2019-03-28T05:53:28.920Z,20.1
2019-03-28T05:54:17.242Z,19.9
2019-03-28T05:55:11.462Z,19.8
2019-03-28T05:55:57.607Z,19.6
2019-03-28T05:56:48.667Z,19.5
2019-03-28T05:57:38.455Z,19.4
2019-03-28T05:58:28.529Z,19.3
2019-03-28T05:59:20.937Z,19.2
2019-03-28T06:00:08.887Z,19.2
2019-03-28T06:00:59.472Z,19.1
2019-03-28T06:01:48.999Z,19
2019-03-28T06:02:39.127Z,19
2019-03-28T06:05:27.374Z,20.7
2019-03-28T06:07:20.809Z,21.4
2019-03-28T06:07:55.969Z,21.8
2019-03-28T06:09:01.574Z,21.9
2019-03-28T06:09:51.473Z,22.1
2019-03-28T06:10:26.176Z,21.7
2019-03-28T06:11:16.721Z,21.3
2019-03-28T06:12:06.589Z,20.3
2019-03-28T06:13:11.079Z,20.1
2019-03-28T06:14:01.923Z,20.2
2019-03-28T06:14:37.049Z,20.8
2019-03-28T06:15:26.828Z,21.2
2019-03-28T06:16:16.611Z,21.6
2019-03-28T06:17:20.479Z,21.8
2019-03-28T06:17:58.948Z,22.1
2019-03-28T06:18:48.316Z,22.3
2019-03-28T06:19:37.025Z,22.4
2019-03-28T06:20:26.366Z,22.5
2019-03-28T06:21:17.428Z,22.6
2019-03-28T06:22:07.793Z,22.8
2019-03-28T06:22:57.082Z,22.8
2019-03-28T06:23:47.640Z,22.8
2019-03-28T06:24:38.275Z,22.8
2019-03-28T06:25:30.508Z,22.4
2019-03-28T06:26:18.297Z,22
2019-03-28T06:27:08.011Z,21.7
2019-03-28T06:27:57.318Z,21.4
2019-03-28T06:29:37.322Z,21
2019-03-28T06:30:27.602Z,20.8
2019-03-28T06:31:19.055Z,20.7
2019-03-28T06:32:09.262Z,20.6
2019-03-28T06:33:01.233Z,20.5
2019-03-28T06:33:47.583Z,20.4
2019-03-28T06:34:37.675Z,20.3
2019-03-28T06:35:30.816Z,20.2
2019-03-28T06:36:19.385Z,20.1
2019-03-28T06:37:09.389Z,20.1
2019-03-28T06:38:01.587Z,19.9
2019-03-28T06:38:48.189Z,19.9
2019-03-28T06:39:41.230Z,19.8
2019-03-28T06:40:28.892Z,19.7
2019-03-28T06:41:18.462Z,19.6
2019-03-28T06:42:08.283Z,19.6
2019-03-28T06:42:58.592Z,19.5
2019-03-28T06:43:49.571Z,19.4
2019-03-28T06:44:38.674Z,19.4
2019-03-28T06:45:28.739Z,19.3
2019-03-28T06:46:19.107Z,19.2
2019-03-28T06:47:08.549Z,19.1
2019-03-28T06:47:59.197Z,19.1
2019-03-28T06:48:48.199Z,19.1
2019-03-28T06:49:38.586Z,19
2019-03-28T06:50:28.885Z,18.9
2019-03-28T06:51:19.115Z,18.9
2019-03-28T06:52:09.211Z,18.8
2019-03-28T06:52:59.016Z,18.9
2019-03-28T06:53:49.526Z,19.5
2019-03-28T06:54:39.502Z,20.3
2019-03-28T06:55:32.940Z,20.9
2019-03-28T06:56:20.798Z,21.4
2019-03-28T06:57:08.791Z,21.8
2019-03-28T06:57:59.448Z,22
2019-03-28T06:58:49.367Z,22.2
2019-03-28T06:59:46.150Z,22.4
2019-03-28T07:00:29.561Z,22.6
2019-03-28T07:01:20.082Z,22.8
2019-03-28T07:02:09.576Z,22.9
2019-03-28T07:02:59.421Z,23.1
2019-03-28T07:05:33.125Z,23.4
2019-03-28T07:06:16.200Z,22.8
2019-03-28T07:07:06.622Z,22.4
2019-03-28T07:07:55.808Z,21.9
2019-03-28T07:08:45.900Z,21.6
2019-03-28T07:09:36.607Z,21.4
2019-03-28T07:10:26.397Z,21.2
2019-03-28T07:11:16.217Z,21
2019-03-28T07:12:05.753Z,20.9
2019-03-28T07:12:56.072Z,20.8
2019-03-28T07:13:46.425Z,20.6
2019-03-28T07:14:36.825Z,20.5
2019-03-28T07:15:26.919Z,20.4
2019-03-28T07:16:16.350Z,20.4
2019-03-28T07:17:06.690Z,20.3
2019-03-28T07:17:56.543Z,20.2
2019-03-28T07:18:46.792Z,20.1
2019-03-28T07:19:36.940Z,20
2019-03-28T07:20:27.065Z,19.9
2019-03-28T07:21:16.291Z,19.8
2019-03-28T07:22:06.398Z,19.8
2019-03-28T07:22:56.779Z,19.7
2019-03-28T07:23:47.397Z,19.6
2019-03-28T07:24:37.146Z,19.5
2019-03-28T07:25:30.807Z,19.4
2019-03-28T07:26:17.262Z,19.3
2019-03-28T07:27:06.826Z,19.3
2019-03-28T07:27:57.197Z,19.2
2019-03-28T07:28:46.692Z,19.1
2019-03-28T07:29:53.065Z,19.1
2019-03-28T07:30:27.995Z,19
2019-03-28T07:31:17.903Z,18.9
2019-03-28T07:32:07.860Z,18.9
2019-03-28T07:32:57.570Z,18.8
2019-03-28T07:33:47.868Z,18.8
2019-03-28T07:35:26.973Z,18.6
2019-03-28T07:36:17.486Z,18.6
2019-03-28T07:37:07.836Z,18.6
2019-03-28T07:37:57.436Z,18.5
2019-03-28T07:38:47.661Z,18.4
2019-03-28T07:39:38.145Z,18.4
2019-03-28T07:40:29.010Z,18.3
2019-03-28T07:41:21.218Z,18.4
2019-03-28T07:42:08.108Z,19.1
2019-03-28T07:42:58.651Z,19.9
2019-03-28T07:43:49.002Z,20.6
2019-03-28T07:44:42.092Z,21.3
2019-03-28T07:45:29.989Z,21.7
2019-03-28T07:46:17.993Z,21.9
2019-03-28T07:47:08.681Z,22.2
2019-03-28T07:47:59.532Z,22.4
2019-03-28T07:48:49.238Z,22.4
2019-03-28T07:49:42.110Z,21.9
2019-03-28T07:50:29.527Z,21.4
2019-03-28T07:51:19.114Z,21
2019-03-28T07:52:10.156Z,20.8
2019-03-28T07:53:00.422Z,20.6
2019-03-28T07:53:50.798Z,20.4
2019-03-28T07:54:40.334Z,20.2
2019-03-28T07:55:29.605Z,20.1
2019-03-28T07:56:19.697Z,20
2019-03-28T07:57:10.137Z,19.9
2019-03-28T07:57:59.229Z,19.8
2019-03-28T07:58:52.662Z,19.8
2019-03-28T07:59:40.277Z,19.6
2019-03-28T08:00:30.224Z,19.6
2019-03-28T08:01:23.804Z,19.5
2019-03-28T08:02:09.079Z,19.4
2019-03-28T08:03:03.701Z,19.4
2019-03-28T08:03:50.579Z,19.3
2019-03-28T08:04:40.024Z,19.3
2019-03-28T08:05:30.057Z,19.2
2019-03-28T08:06:22.732Z,19.1
2019-03-28T08:07:09.252Z,19.1
2019-03-28T08:08:00.319Z,19
2019-03-28T08:08:52.369Z,18.9
2019-03-28T08:09:45.133Z,18.9
2019-03-28T08:10:29.936Z,18.8
2019-03-28T08:11:21.994Z,18.8
2019-03-28T08:13:00.876Z,18.6
2019-03-28T08:13:50.710Z,18.6
2019-03-28T08:14:41.068Z,18.6
2019-03-28T08:15:31.340Z,18.5
2019-03-28T08:16:20.349Z,18.4
2019-03-28T08:17:10.986Z,18.3
2019-03-28T08:18:01.522Z,18.3
2019-03-28T08:18:52.074Z,18.3
2019-03-28T08:19:45.834Z,18.2
2019-03-28T08:20:31.171Z,18.1
2019-03-28T08:21:21.852Z,18.2
2019-03-28T08:22:10.518Z,18.6
2019-03-28T08:23:00.849Z,19.6
2019-03-28T08:23:51.456Z,20.4
2019-03-28T08:24:41.226Z,21.1
2019-03-28T08:25:31.671Z,21.5
2019-03-28T08:26:21.628Z,21.8
2019-03-28T08:27:11.508Z,22.1
2019-03-28T08:28:04.733Z,22.3
2019-03-28T08:28:51.830Z,22.6
2019-03-28T08:29:41.895Z,22.3
2019-03-28T08:30:31.670Z,21.7
2019-03-28T08:31:23.150Z,21.3
2019-03-28T08:32:16.135Z,20.9
2019-03-28T08:33:02.905Z,20.6
2019-03-28T08:33:52.353Z,20.5
2019-03-28T08:34:42.231Z,20.3
2019-03-28T08:35:31.845Z,20.2
2019-03-28T08:36:22.106Z,20.1
2019-03-28T08:37:11.971Z,20
2019-03-28T08:38:02.535Z,19.9
2019-03-28T08:38:52.564Z,19.8
2019-03-28T08:39:46.005Z,19.7
2019-03-28T08:40:31.972Z,19.6
2019-03-28T08:41:23.244Z,19.6
2019-03-28T08:42:12.000Z,19.5
2019-03-28T08:43:02.327Z,19.4
2019-03-28T08:43:52.150Z,19.4
2019-03-28T08:44:43.402Z,19.3
2019-03-28T08:45:32.439Z,19.3
2019-03-28T08:46:22.815Z,19.2
2019-03-28T08:47:14.194Z,19.1
2019-03-28T08:48:02.957Z,19.1
2019-03-28T08:48:53.032Z,19
2019-03-28T08:49:43.091Z,18.9
2019-03-28T08:50:33.386Z,18.9
2019-03-28T08:51:23.267Z,18.9
2019-03-28T08:52:16.937Z,18.8
2019-03-28T08:54:43.132Z,18.6
2019-03-28T08:55:32.824Z,18.5
2019-03-28T08:56:22.786Z,18.4
2019-03-28T08:57:15.477Z,18.4
2019-03-28T08:58:03.756Z,18.4
2019-03-28T08:58:53.504Z,18.3
2019-03-28T08:59:43.771Z,18.3
2019-03-28T09:01:00.546Z,18.2
2019-03-28T09:01:23.969Z,18.8
2019-03-28T09:02:14.296Z,19.3
2019-03-28T09:03:03.523Z,20.1
2019-03-28T09:03:57.310Z,20.8
2019-03-28T09:04:44.404Z,21.4
2019-03-28T09:05:34.484Z,21.8
2019-03-28T09:06:26.141Z,22.1
2019-03-28T09:07:17.917Z,22.3
2019-03-28T09:08:05.123Z,22.6
2019-03-28T09:08:54.326Z,22.6
2019-03-28T09:09:45.228Z,22
2019-03-28T09:10:34.511Z,21.5
2019-03-28T09:12:14.953Z,20.9
2019-03-28T09:13:05.240Z,20.6
2019-03-28T09:13:55.259Z,20.4
2019-03-28T09:14:45.454Z,20.3
2019-03-28T09:15:50.298Z,20.3
2019-03-28T09:16:25.173Z,20.1
2019-03-28T09:17:14.458Z,20
2019-03-28T09:18:07.743Z,19.9
2019-03-28T09:18:55.217Z,19.8
2019-03-28T09:19:47.155Z,19.8
2019-03-28T09:20:35.193Z,19.7
2019-03-28T09:21:25.642Z,19.6
2019-03-28T09:22:15.292Z,19.6
2019-03-28T09:23:05.719Z,19.5
2019-03-28T09:23:55.725Z,19.4
2019-03-28T09:24:45.789Z,19.4
2019-03-28T09:25:35.829Z,19.3
2019-03-28T09:26:26.107Z,19.3
2019-03-28T09:27:16.275Z,19.2
2019-03-28T09:28:05.442Z,19.1
2019-03-28T09:28:56.411Z,19.1
2019-03-28T09:29:45.115Z,19
2019-03-28T09:30:53.332Z,18.9
2019-03-28T09:31:28.202Z,18.9
2019-03-28T09:32:15.710Z,18.8
2019-03-28T09:33:05.225Z,18.8
2019-03-28T09:34:46.032Z,18.6
2019-03-28T09:35:38.140Z,18.6
2019-03-28T09:36:27.389Z,18.5
2019-03-28T09:37:17.332Z,18.4
2019-03-28T09:38:06.754Z,18.4
2019-03-28T09:38:56.529Z,18.3
2019-03-28T09:39:47.134Z,18.6
2019-03-28T09:40:37.349Z,19.6
2019-03-28T09:41:27.060Z,20.4
2019-03-28T09:42:17.627Z,21.2
2019-03-28T09:43:07.204Z,21.7
2019-03-28T09:44:04.520Z,22
2019-03-28T09:44:47.784Z,22.4
2019-03-28T09:45:38.453Z,22.6
2019-03-28T09:46:26.843Z,22.8
2019-03-28T09:47:16.320Z,22.3
2019-03-28T09:48:07.660Z,21.8
2019-03-28T09:48:57.121Z,21.4
2019-03-28T09:49:47.412Z,21.1
2019-03-28T09:50:37.407Z,20.8
2019-03-28T09:51:27.071Z,20.6
2019-03-28T09:52:18.030Z,20.5
2019-03-28T09:53:09.126Z,20.3
2019-03-28T09:53:58.013Z,20.3
2019-03-28T09:54:47.336Z,20.1
2019-03-28T09:55:38.111Z,20.1
2019-03-28T09:56:28.121Z,19.9
2019-03-28T09:57:17.795Z,19.9
2019-03-28T09:58:08.468Z,19.8
2019-03-28T09:59:01.819Z,19.8
2019-03-28T09:59:48.303Z,19.6
2019-03-28T10:00:42.809Z,19.6
2019-03-28T10:01:28.416Z,19.5
2019-03-28T10:02:18.451Z,19.4
2019-03-28T10:03:07.873Z,19.4
2019-03-28T10:03:58.766Z,19.3
2019-03-28T10:06:25.650Z,19.2
2019-03-28T10:07:15.716Z,19.1
2019-03-28T10:08:05.422Z,19
2019-03-28T10:08:55.672Z,18.9
2019-03-28T10:09:49.461Z,18.9
2019-03-28T10:10:36.472Z,18.8
2019-03-28T10:11:25.218Z,18.8
2019-03-28T10:13:06.400Z,18.6
2019-03-28T10:13:55.930Z,18.6
2019-03-28T10:14:46.767Z,18.6
2019-03-28T10:15:40.307Z,18.5
2019-03-28T10:16:26.903Z,18.4
2019-03-28T10:17:16.247Z,18.8
2019-03-28T10:18:06.526Z,19.8
2019-03-28T10:18:56.820Z,20.6
2019-03-28T10:19:48.256Z,21.3
2019-03-28T10:20:36.903Z,21.8
2019-03-28T10:21:27.001Z,22.1
2019-03-28T10:22:17.359Z,22.4
2019-03-28T10:23:07.381Z,22.7
2019-03-28T10:23:56.708Z,22.9
2019-03-28T10:24:47.483Z,22.6
2019-03-28T10:25:36.870Z,22.1
2019-03-28T10:26:27.036Z,21.6
2019-03-28T10:27:20.651Z,21.3
2019-03-28T10:28:07.303Z,20.9
2019-03-28T10:28:57.050Z,20.8
2019-03-28T10:29:46.823Z,20.6
2019-03-28T10:30:37.172Z,20.4
2019-03-28T10:31:27.478Z,20.4
2019-03-28T10:32:32.375Z,20.3
2019-03-28T10:33:07.198Z,20.1
2019-03-28T10:33:58.402Z,20.1
2019-03-28T10:34:47.075Z,20
2019-03-28T10:35:37.242Z,19.9
2019-03-28T10:36:30.713Z,19.9
2019-03-28T10:37:17.145Z,19.8
2019-03-28T10:38:07.995Z,19.7
2019-03-28T10:38:57.474Z,19.6
2019-03-28T10:39:47.649Z,19.6
2019-03-28T10:40:38.062Z,19.5
2019-03-28T10:41:33.205Z,19.4
2019-03-28T10:42:18.265Z,19.4
2019-03-28T10:43:08.125Z,19.3
2019-03-28T10:43:58.149Z,19.3
2019-03-28T10:44:48.447Z,19.1
2019-03-28T10:45:41.870Z,19.1
2019-03-28T10:46:28.284Z,19
2019-03-28T10:47:17.940Z,18.9
2019-03-28T10:48:08.684Z,18.9
2019-03-28T10:49:02.675Z,18.8
2019-03-28T10:49:49.677Z,18.8
2019-03-28T10:50:53.725Z,18.8
2019-03-28T10:51:29.416Z,18.6
2019-03-28T10:52:20.957Z,18.6
2019-03-28T10:53:08.799Z,18.6
2019-03-28T10:53:59.233Z,18.5
2019-03-28T10:54:48.671Z,18.8
2019-03-28T10:55:39.072Z,19.9
2019-03-28T10:56:31.954Z,20.8
2019-03-28T10:57:38.865Z,21.5
2019-03-28T10:58:26.698Z,22.1
2019-03-28T10:58:58.736Z,22.4
2019-03-28T10:59:49.228Z,22.5
2019-03-28T11:00:38.821Z,22.8
2019-03-28T11:01:58.933Z,23
2019-03-28T11:02:21.258Z,22.3
2019-03-28T11:03:11.673Z,22
2019-03-28T11:04:00.871Z,21.6
2019-03-28T11:04:51.196Z,21.3
2019-03-28T11:05:41.157Z,21
2019-03-28T11:06:30.267Z,20.8
2019-03-28T11:07:20.291Z,20.7
2019-03-28T11:08:10.653Z,20.5
2019-03-28T11:09:00.203Z,20.4
2019-03-28T11:09:50.483Z,20.3
2019-03-28T11:10:40.036Z,20.2
2019-03-28T11:11:31.405Z,20.1
2019-03-28T11:12:20.457Z,20
2019-03-28T11:13:14.846Z,19.9
2019-03-28T11:14:00.513Z,19.9
2019-03-28T11:14:54.165Z,19.8
2019-03-28T11:15:39.828Z,19.8
2019-03-28T11:16:31.670Z,19.7
2019-03-28T11:17:20.402Z,19.6
2019-03-28T11:18:11.088Z,19.6
2019-03-28T11:19:01.368Z,19.5
2019-03-28T11:19:52.142Z,19.4
2019-03-28T11:20:45.989Z,19.3
2019-03-28T11:21:35.250Z,19.3
2019-03-28T11:22:21.390Z,19.3
2019-03-28T11:23:12.089Z,19.1
2019-03-28T11:24:02.467Z,19.1
2019-03-28T11:24:55.319Z,19
2019-03-28T11:25:41.140Z,18.9
2019-03-28T11:26:32.967Z,18.9
2019-03-28T11:27:22.007Z,18.9
2019-03-28T11:28:12.470Z,18.8
2019-03-28T11:29:05.865Z,18.8
2019-03-28T11:30:42.577Z,18.6
2019-03-28T11:32:23.407Z,19.8
2019-03-28T11:33:15.420Z,20.4